sensor_id;sensor_type;location;lat;lon;timestamp;temperature;humidity
5834;DHT22;2943;48.012;10.968;2022-09-09T00:01:18;15.80;99.90
5834;DHT22;2943;48.012;10.968;2022-09-09T00:03:59;15.80;99.90
5834;DHT22;2943;48.012;10.968;2022-09-09T00:06:29;15.80;99.90
5834;DHT22;2943;48.012;10.968;2022-09-09T00:09:02;15.80;99.90
5834;DHT22;2943;48.012;10.968;2022-09-09T00:11:40;15.80;99.90
5834;DHT22;2943;48.012;10.968;2022-09-09T00:14:16;15.80;99.90
5834;DHT22;2943;48.012;10.968;2022-09-09T00:16:50;15.80;99.90
5834;DHT22;2943;48.012;10.968;2022-09-09T00:19:24;15.80;99.90
5834;DHT22;2943;48.012;10.968;2022-09-09T00:22:00;15.80;99.90
5834;DHT22;2943;48.012;10.968;2022-09-09T00:24:37;15.80;99.90
5834;DHT22;2943;48.012;10.968;2022-09-09T00:27:08;15.80;99.90
5834;DHT22;2943;48.012;10.968;2022-09-09T00:29:43;15.90;99.90
5834;DHT22;2943;48.012;10.968;2022-09-09T00:32:14;15.80;99.90
5834;DHT22;2943;48.012;10.968;2022-09-09T00:34:48;15.80;99.90
5834;DHT22;2943;48.012;10.968;2022-09-09T00:37:16;15.80;99.90
5834;DHT22;2943;48.012;10.968;2022-09-09T00:39:46;15.80;99.90
5834;DHT22;2943;48.012;10.968;2022-09-09T00:42:15;15.80;99.90
5834;DHT22;2943;48.012;10.968;2022-09-09T00:44:52;15.80;99.90
5834;DHT22;2943;48.012;10.968;2022-09-09T00:47:43;15.80;99.90
5834;DHT22;2943;48.012;10.968;2022-09-09T00:50:22;15.80;99.90
5834;DHT22;2943;48.012;10.968;2022-09-09T00:52:59;15.80;99.90
5834;DHT22;2943;48.012;10.968;2022-09-09T00:55:34;15.80;99.90
5834;DHT22;2943;48.012;10.968;2022-09-09T00:58:06;15.80;99.90
5834;DHT22;2943;48.012;10.968;2022-09-09T01:00:39;15.80;99.90
5834;DHT22;2943;48.012;10.968;2022-09-09T01:03:19;15.80;99.90
5834;DHT22;2943;48.012;10.968;2022-09-09T01:05:59;15.80;99.90
5834;DHT22;2943;48.012;10.968;2022-09-09T01:08:47;15.80;99.90
5834;DHT22;2943;48.012;10.968;2022-09-09T01:11:21;15.80;99.90
5834;DHT22;2943;48.012;10.968;2022-09-09T01:13:53;15.80;99.90
5834;DHT22;2943;48.012;10.968;2022-09-09T01:16:25;15.70;99.90
5834;DHT22;2943;48.012;10.968;2022-09-09T01:18:53;15.70;99.90
5834;DHT22;2943;48.012;10.968;2022-09-09T01:21:32;15.70;99.90
5834;DHT22;2943;48.012;10.968;2022-09-09T01:24:25;15.70;99.90
5834;DHT22;2943;48.012;10.968;2022-09-09T01:26:57;15.70;99.90
5834;DHT22;2943;48.012;10.968;2022-09-09T01:29:24;15.70;99.90
5834;DHT22;2943;48.012;10.968;2022-09-09T01:31:54;15.80;99.90
5834;DHT22;2943;48.012;10.968;2022-09-09T01:34:23;15.70;99.90
5834;DHT22;2943;48.012;10.968;2022-09-09T01:36:56;15.70;99.90
5834;DHT22;2943;48.012;10.968;2022-09-09T01:39:24;15.70;99.90
5834;DHT22;2943;48.012;10.968;2022-09-09T01:41:52;15.70;99.90
5834;DHT22;2943;48.012;10.968;2022-09-09T01:44:21;15.70;99.90
5834;DHT22;2943;48.012;10.968;2022-09-09T01:46:48;15.70;99.90
5834;DHT22;2943;48.012;10.968;2022-09-09T01:49:16;15.70;99.90
5834;DHT22;2943;48.012;10.968;2022-09-09T01:51:44;15.70;99.90
5834;DHT22;2943;48.012;10.968;2022-09-09T01:54:11;15.70;99.90
5834;DHT22;2943;48.012;10.968;2022-09-09T01:56:47;15.70;99.90
5834;DHT22;2943;48.012;10.968;2022-09-09T01:59:32;15.70;99.90
5834;DHT22;2943;48.012;10.968;2022-09-09T02:02:10;15.60;99.90
5834;DHT22;2943;48.012;10.968;2022-09-09T02:04:40;15.60;99.90
5834;DHT22;2943;48.012;10.968;2022-09-09T02:07:18;15.60;99.90
5834;DHT22;2943;48.012;10.968;2022-09-09T02:09:51;15.60;99.90
5834;DHT22;2943;48.012;10.968;2022-09-09T02:12:23;15.60;99.90
5834;DHT22;2943;48.012;10.968;2022-09-09T02:14:58;15.60;99.90
5834;DHT22;2943;48.012;10.968;2022-09-09T02:17:28;15.60;99.90
5834;DHT22;2943;48.012;10.968;2022-09-09T02:20:02;15.60;99.90
5834;DHT22;2943;48.012;10.968;2022-09-09T02:22:31;15.50;99.90
5834;DHT22;2943;48.012;10.968;2022-09-09T02:25:02;15.50;99.90
5834;DHT22;2943;48.012;10.968;2022-09-09T02:27:31;15.50;99.90
5834;DHT22;2943;48.012;10.968;2022-09-09T02:30:01;15.50;99.90
5834;DHT22;2943;48.012;10.968;2022-09-09T02:32:30;15.50;99.90
5834;DHT22;2943;48.012;10.968;2022-09-09T02:35:03;15.40;99.90
5834;DHT22;2943;48.012;10.968;2022-09-09T02:37:36;15.40;99.90
5834;DHT22;2943;48.012;10.968;2022-09-09T02:40:04;15.40;99.90
5834;DHT22;2943;48.012;10.968;2022-09-09T02:42:32;15.30;99.90
5834;DHT22;2943;48.012;10.968;2022-09-09T02:45:00;15.30;99.90
5834;DHT22;2943;48.012;10.968;2022-09-09T02:47:33;15.30;99.90
5834;DHT22;2943;48.012;10.968;2022-09-09T02:50:08;15.30;99.90
5834;DHT22;2943;48.012;10.968;2022-09-09T02:52:47;15.20;99.90
5834;DHT22;2943;48.012;10.968;2022-09-09T02:55:20;15.20;99.90
5834;DHT22;2943;48.012;10.968;2022-09-09T02:57:50;15.20;99.90
5834;DHT22;2943;48.012;10.968;2022-09-09T03:00:24;15.20;99.90
5834;DHT22;2943;48.012;10.968;2022-09-09T03:02:51;15.10;99.90
5834;DHT22;2943;48.012;10.968;2022-09-09T03:05:18;15.10;99.90
5834;DHT22;2943;48.012;10.968;2022-09-09T03:07:45;15.20;99.90
5834;DHT22;2943;48.012;10.968;2022-09-09T03:10:12;15.10;99.90
5834;DHT22;2943;48.012;10.968;2022-09-09T03:12:39;15.10;99.90
5834;DHT22;2943;48.012;10.968;2022-09-09T03:15:07;15.10;99.90
5834;DHT22;2943;48.012;10.968;2022-09-09T03:17:36;15.00;99.90
5834;DHT22;2943;48.012;10.968;2022-09-09T03:20:03;15.00;99.90
5834;DHT22;2943;48.012;10.968;2022-09-09T03:22:31;15.00;99.90
5834;DHT22;2943;48.012;10.968;2022-09-09T03:24:57;15.00;99.90
5834;DHT22;2943;48.012;10.968;2022-09-09T03:27:24;15.00;99.90
5834;DHT22;2943;48.012;10.968;2022-09-09T03:29:51;15.00;99.90
5834;DHT22;2943;48.012;10.968;2022-09-09T03:32:19;14.90;99.90
5834;DHT22;2943;48.012;10.968;2022-09-09T03:34:49;14.90;99.90
5834;DHT22;2943;48.012;10.968;2022-09-09T03:37:16;14.90;99.90
5834;DHT22;2943;48.012;10.968;2022-09-09T03:39:43;14.80;99.90
5834;DHT22;2943;48.012;10.968;2022-09-09T03:42:12;14.80;99.90
5834;DHT22;2943;48.012;10.968;2022-09-09T03:44:39;14.70;99.90
5834;DHT22;2943;48.012;10.968;2022-09-09T03:47:07;14.60;99.90
5834;DHT22;2943;48.012;10.968;2022-09-09T03:49:34;14.60;99.90
5834;DHT22;2943;48.012;10.968;2022-09-09T03:52:02;14.50;99.90
5834;DHT22;2943;48.012;10.968;2022-09-09T03:54:29;14.50;99.90
5834;DHT22;2943;48.012;10.968;2022-09-09T03:56:55;14.50;99.90
5834;DHT22;2943;48.012;10.968;2022-09-09T03:59:23;14.50;99.90
5834;DHT22;2943;48.012;10.968;2022-09-09T04:01:50;14.50;99.90
5834;DHT22;2943;48.012;10.968;2022-09-09T04:04:17;14.50;99.90
5834;DHT22;2943;48.012;10.968;2022-09-09T04:06:45;14.60;99.90
5834;DHT22;2943;48.012;10.968;2022-09-09T04:09:14;14.70;99.90
5834;DHT22;2943;48.012;10.968;2022-09-09T04:11:41;14.70;99.90
5834;DHT22;2943;48.012;10.968;2022-09-09T04:14:08;14.80;99.90
5834;DHT22;2943;48.012;10.968;2022-09-09T04:16:35;14.80;99.90
5834;DHT22;2943;48.012;10.968;2022-09-09T04:19:02;14.80;99.90
5834;DHT22;2943;48.012;10.968;2022-09-09T04:21:29;14.80;99.90
5834;DHT22;2943;48.012;10.968;2022-09-09T04:23:56;14.70;99.90
5834;DHT22;2943;48.012;10.968;2022-09-09T04:26:24;14.70;99.90
5834;DHT22;2943;48.012;10.968;2022-09-09T04:28:51;14.70;99.90
5834;DHT22;2943;48.012;10.968;2022-09-09T04:31:20;14.70;99.90
5834;DHT22;2943;48.012;10.968;2022-09-09T04:33:48;14.70;99.90
5834;DHT22;2943;48.012;10.968;2022-09-09T04:36:15;14.60;99.90
5834;DHT22;2943;48.012;10.968;2022-09-09T04:38:43;14.70;99.90
5834;DHT22;2943;48.012;10.968;2022-09-09T04:41:10;14.70;99.90
5834;DHT22;2943;48.012;10.968;2022-09-09T04:43:39;14.80;99.90
5834;DHT22;2943;48.012;10.968;2022-09-09T04:46:06;14.80;99.90
5834;DHT22;2943;48.012;10.968;2022-09-09T04:48:33;14.80;99.90
5834;DHT22;2943;48.012;10.968;2022-09-09T04:51:02;14.80;99.90
5834;DHT22;2943;48.012;10.968;2022-09-09T04:53:30;14.80;99.90
5834;DHT22;2943;48.012;10.968;2022-09-09T04:56:05;14.80;99.90
5834;DHT22;2943;48.012;10.968;2022-09-09T04:58:32;14.80;99.90
5834;DHT22;2943;48.012;10.968;2022-09-09T05:01:05;14.80;99.90
5834;DHT22;2943;48.012;10.968;2022-09-09T05:03:32;14.80;99.90
5834;DHT22;2943;48.012;10.968;2022-09-09T05:06:04;14.90;99.90
5834;DHT22;2943;48.012;10.968;2022-09-09T05:08:31;14.90;99.90
5834;DHT22;2943;48.012;10.968;2022-09-09T05:10:57;14.90;99.90
5834;DHT22;2943;48.012;10.968;2022-09-09T05:13:24;14.90;99.90
5834;DHT22;2943;48.012;10.968;2022-09-09T05:15:52;14.90;99.90
5834;DHT22;2943;48.012;10.968;2022-09-09T05:18:20;14.90;99.90
5834;DHT22;2943;48.012;10.968;2022-09-09T05:20:48;15.00;99.90
5834;DHT22;2943;48.012;10.968;2022-09-09T05:23:14;14.90;99.90
5834;DHT22;2943;48.012;10.968;2022-09-09T05:25:41;14.90;99.90
5834;DHT22;2943;48.012;10.968;2022-09-09T05:28:09;14.90;99.90
5834;DHT22;2943;48.012;10.968;2022-09-09T05:30:37;14.80;99.90
5834;DHT22;2943;48.012;10.968;2022-09-09T05:33:04;14.80;99.90
5834;DHT22;2943;48.012;10.968;2022-09-09T05:35:32;14.80;99.90
5834;DHT22;2943;48.012;10.968;2022-09-09T05:37:59;15.00;99.90
5834;DHT22;2943;48.012;10.968;2022-09-09T05:40:27;15.10;99.90
5834;DHT22;2943;48.012;10.968;2022-09-09T05:42:53;15.20;99.90
5834;DHT22;2943;48.012;10.968;2022-09-09T05:45:20;15.30;99.90
5834;DHT22;2943;48.012;10.968;2022-09-09T05:47:51;15.30;99.90
5834;DHT22;2943;48.012;10.968;2022-09-09T05:50:19;15.40;99.90
5834;DHT22;2943;48.012;10.968;2022-09-09T05:52:47;15.30;99.90
5834;DHT22;2943;48.012;10.968;2022-09-09T05:55:15;15.40;99.90
5834;DHT22;2943;48.012;10.968;2022-09-09T05:57:48;15.40;99.90
5834;DHT22;2943;48.012;10.968;2022-09-09T06:00:15;15.40;99.90
5834;DHT22;2943;48.012;10.968;2022-09-09T06:02:42;15.30;99.90
5834;DHT22;2943;48.012;10.968;2022-09-09T06:05:09;15.30;99.90
5834;DHT22;2943;48.012;10.968;2022-09-09T06:07:36;15.30;99.90
5834;DHT22;2943;48.012;10.968;2022-09-09T06:10:05;15.20;99.90
5834;DHT22;2943;48.012;10.968;2022-09-09T06:12:32;15.20;99.90
5834;DHT22;2943;48.012;10.968;2022-09-09T06:14:59;15.10;99.90
5834;DHT22;2943;48.012;10.968;2022-09-09T06:17:26;15.10;99.90
5834;DHT22;2943;48.012;10.968;2022-09-09T06:19:52;15.20;99.90
5834;DHT22;2943;48.012;10.968;2022-09-09T06:22:19;15.20;99.90
5834;DHT22;2943;48.012;10.968;2022-09-09T06:24:46;15.30;99.90
5834;DHT22;2943;48.012;10.968;2022-09-09T06:27:14;15.40;99.90
5834;DHT22;2943;48.012;10.968;2022-09-09T06:29:41;15.50;99.90
5834;DHT22;2943;48.012;10.968;2022-09-09T06:32:08;15.50;99.90
5834;DHT22;2943;48.012;10.968;2022-09-09T06:34:35;15.60;99.90
5834;DHT22;2943;48.012;10.968;2022-09-09T06:37:02;15.70;99.90
5834;DHT22;2943;48.012;10.968;2022-09-09T06:39:28;15.70;99.90
5834;DHT22;2943;48.012;10.968;2022-09-09T06:41:55;15.70;99.90
5834;DHT22;2943;48.012;10.968;2022-09-09T06:44:25;15.80;99.90
5834;DHT22;2943;48.012;10.968;2022-09-09T06:46:52;15.80;99.90
5834;DHT22;2943;48.012;10.968;2022-09-09T06:49:19;15.90;99.90
5834;DHT22;2943;48.012;10.968;2022-09-09T06:51:46;15.90;99.90
5834;DHT22;2943;48.012;10.968;2022-09-09T06:54:12;16.00;99.90
5834;DHT22;2943;48.012;10.968;2022-09-09T06:56:41;16.10;99.90
5834;DHT22;2943;48.012;10.968;2022-09-09T06:59:09;16.10;99.90
5834;DHT22;2943;48.012;10.968;2022-09-09T07:01:38;16.20;99.90
5834;DHT22;2943;48.012;10.968;2022-09-09T07:04:06;16.30;99.90
5834;DHT22;2943;48.012;10.968;2022-09-09T07:06:35;16.30;99.90
5834;DHT22;2943;48.012;10.968;2022-09-09T07:09:04;16.30;99.90
5834;DHT22;2943;48.012;10.968;2022-09-09T07:11:33;16.40;99.90
5834;DHT22;2943;48.012;10.968;2022-09-09T07:14:00;16.40;99.90
5834;DHT22;2943;48.012;10.968;2022-09-09T07:16:28;16.40;99.90
5834;DHT22;2943;48.012;10.968;2022-09-09T07:18:56;16.40;99.90
5834;DHT22;2943;48.012;10.968;2022-09-09T07:21:24;16.40;99.90
5834;DHT22;2943;48.012;10.968;2022-09-09T07:23:53;16.40;99.90
5834;DHT22;2943;48.012;10.968;2022-09-09T07:26:22;16.40;99.90
5834;DHT22;2943;48.012;10.968;2022-09-09T07:28:49;16.40;99.90
5834;DHT22;2943;48.012;10.968;2022-09-09T07:31:18;16.40;99.90
5834;DHT22;2943;48.012;10.968;2022-09-09T07:33:46;16.40;99.90
5834;DHT22;2943;48.012;10.968;2022-09-09T07:36:16;16.40;99.90
5834;DHT22;2943;48.012;10.968;2022-09-09T07:38:45;16.40;99.90
5834;DHT22;2943;48.012;10.968;2022-09-09T07:41:14;16.40;99.90
5834;DHT22;2943;48.012;10.968;2022-09-09T07:43:44;16.40;99.90
5834;DHT22;2943;48.012;10.968;2022-09-09T07:46:12;16.40;99.90
5834;DHT22;2943;48.012;10.968;2022-09-09T07:48:44;16.50;99.90
5834;DHT22;2943;48.012;10.968;2022-09-09T07:51:13;16.50;99.90
5834;DHT22;2943;48.012;10.968;2022-09-09T07:53:42;16.60;99.90
5834;DHT22;2943;48.012;10.968;2022-09-09T07:56:11;16.60;99.90
5834;DHT22;2943;48.012;10.968;2022-09-09T07:58:39;16.60;99.90
5834;DHT22;2943;48.012;10.968;2022-09-09T08:01:07;16.70;99.90
5834;DHT22;2943;48.012;10.968;2022-09-09T08:03:35;16.80;99.90
5834;DHT22;2943;48.012;10.968;2022-09-09T08:06:02;16.80;99.90
5834;DHT22;2943;48.012;10.968;2022-09-09T08:08:29;16.80;99.90
5834;DHT22;2943;48.012;10.968;2022-09-09T08:11:04;16.90;99.90
5834;DHT22;2943;48.012;10.968;2022-09-09T08:13:30;16.90;99.90
5834;DHT22;2943;48.012;10.968;2022-09-09T08:16:04;17.00;99.90
5834;DHT22;2943;48.012;10.968;2022-09-09T08:18:32;17.00;99.90
5834;DHT22;2943;48.012;10.968;2022-09-09T08:21:05;17.00;99.90
5834;DHT22;2943;48.012;10.968;2022-09-09T08:23:34;17.00;99.90
5834;DHT22;2943;48.012;10.968;2022-09-09T08:26:06;17.10;99.90
5834;DHT22;2943;48.012;10.968;2022-09-09T08:28:34;17.10;99.90
5834;DHT22;2943;48.012;10.968;2022-09-09T08:31:08;17.10;99.90
5834;DHT22;2943;48.012;10.968;2022-09-09T08:33:36;17.10;99.90
5834;DHT22;2943;48.012;10.968;2022-09-09T08:36:04;17.10;99.90
5834;DHT22;2943;48.012;10.968;2022-09-09T08:38:32;17.10;99.90
5834;DHT22;2943;48.012;10.968;2022-09-09T08:41:07;17.10;99.90
5834;DHT22;2943;48.012;10.968;2022-09-09T08:43:37;17.10;99.90
5834;DHT22;2943;48.012;10.968;2022-09-09T08:46:09;17.10;99.90
5834;DHT22;2943;48.012;10.968;2022-09-09T08:48:44;17.10;99.90
5834;DHT22;2943;48.012;10.968;2022-09-09T08:51:14;17.00;99.90
5834;DHT22;2943;48.012;10.968;2022-09-09T08:53:43;17.00;99.90
5834;DHT22;2943;48.012;10.968;2022-09-09T08:56:14;17.00;99.90
5834;DHT22;2943;48.012;10.968;2022-09-09T08:58:46;17.10;99.90
5834;DHT22;2943;48.012;10.968;2022-09-09T09:01:28;17.10;99.90
5834;DHT22;2943;48.012;10.968;2022-09-09T09:04:02;17.00;99.90
5834;DHT22;2943;48.012;10.968;2022-09-09T09:06:43;17.10;99.90
5834;DHT22;2943;48.012;10.968;2022-09-09T09:09:20;17.10;99.90
5834;DHT22;2943;48.012;10.968;2022-09-09T09:11:51;17.10;99.90
5834;DHT22;2943;48.012;10.968;2022-09-09T09:14:21;17.20;99.90
5834;DHT22;2943;48.012;10.968;2022-09-09T09:16:53;17.20;99.90
5834;DHT22;2943;48.012;10.968;2022-09-09T09:19:20;17.10;99.90
5834;DHT22;2943;48.012;10.968;2022-09-09T09:21:51;17.20;99.90
5834;DHT22;2943;48.012;10.968;2022-09-09T09:24:22;17.20;99.90
5834;DHT22;2943;48.012;10.968;2022-09-09T09:26:51;17.20;99.90
5834;DHT22;2943;48.012;10.968;2022-09-09T09:29:19;17.20;99.90
5834;DHT22;2943;48.012;10.968;2022-09-09T09:31:51;17.20;99.90
5834;DHT22;2943;48.012;10.968;2022-09-09T09:34:20;17.20;99.90
5834;DHT22;2943;48.012;10.968;2022-09-09T09:36:53;17.20;99.90
5834;DHT22;2943;48.012;10.968;2022-09-09T09:39:25;17.30;99.90
5834;DHT22;2943;48.012;10.968;2022-09-09T09:41:53;17.30;99.90
5834;DHT22;2943;48.012;10.968;2022-09-09T09:44:24;17.30;99.90
5834;DHT22;2943;48.012;10.968;2022-09-09T09:46:51;17.20;99.90
5834;DHT22;2943;48.012;10.968;2022-09-09T09:49:18;17.30;99.90
5834;DHT22;2943;48.012;10.968;2022-09-09T09:51:45;17.30;99.90
5834;DHT22;2943;48.012;10.968;2022-09-09T09:54:22;17.30;99.90
5834;DHT22;2943;48.012;10.968;2022-09-09T09:56:52;17.30;99.90
5834;DHT22;2943;48.012;10.968;2022-09-09T09:59:24;17.40;99.90
5834;DHT22;2943;48.012;10.968;2022-09-09T10:02:16;17.40;99.90
5834;DHT22;2943;48.012;10.968;2022-09-09T10:04:43;17.40;99.90
5834;DHT22;2943;48.012;10.968;2022-09-09T10:07:12;17.40;99.90
5834;DHT22;2943;48.012;10.968;2022-09-09T10:09:40;17.40;99.90
5834;DHT22;2943;48.012;10.968;2022-09-09T10:12:18;17.40;99.90
5834;DHT22;2943;48.012;10.968;2022-09-09T10:14:55;17.50;99.90
5834;DHT22;2943;48.012;10.968;2022-09-09T10:17:33;17.50;99.90
5834;DHT22;2943;48.012;10.968;2022-09-09T10:20:16;17.50;99.90
5834;DHT22;2943;48.012;10.968;2022-09-09T10:22:49;17.50;99.90
5834;DHT22;2943;48.012;10.968;2022-09-09T10:25:35;17.60;99.90
5834;DHT22;2943;48.012;10.968;2022-09-09T10:28:32;17.60;99.90
5834;DHT22;2943;48.012;10.968;2022-09-09T10:31:08;17.60;99.90
5834;DHT22;2943;48.012;10.968;2022-09-09T10:33:46;17.60;99.90
5834;DHT22;2943;48.012;10.968;2022-09-09T10:36:19;17.70;99.90
5834;DHT22;2943;48.012;10.968;2022-09-09T10:38:48;17.70;99.90
5834;DHT22;2943;48.012;10.968;2022-09-09T10:41:19;17.70;99.90
5834;DHT22;2943;48.012;10.968;2022-09-09T10:47:00;17.70;99.90
5834;DHT22;2943;48.012;10.968;2022-09-09T10:49:48;17.80;99.90
5834;DHT22;2943;48.012;10.968;2022-09-09T10:52:23;17.80;99.90
5834;DHT22;2943;48.012;10.968;2022-09-09T10:54:57;17.90;99.90
5834;DHT22;2943;48.012;10.968;2022-09-09T10:57:28;17.90;99.90
5834;DHT22;2943;48.012;10.968;2022-09-09T10:59:59;18.00;99.90
5834;DHT22;2943;48.012;10.968;2022-09-09T11:02:30;18.10;99.90
5834;DHT22;2943;48.012;10.968;2022-09-09T11:05:00;18.20;99.90
5834;DHT22;2943;48.012;10.968;2022-09-09T11:07:33;18.20;99.90
5834;DHT22;2943;48.012;10.968;2022-09-09T11:10:04;18.30;99.90
5834;DHT22;2943;48.012;10.968;2022-09-09T11:12:34;18.40;99.90
5834;DHT22;2943;48.012;10.968;2022-09-09T11:15:08;18.50;99.90
5834;DHT22;2943;48.012;10.968;2022-09-09T11:17:43;18.50;99.90
5834;DHT22;2943;48.012;10.968;2022-09-09T11:20:13;18.50;99.90
5834;DHT22;2943;48.012;10.968;2022-09-09T11:22:45;18.40;99.90
5834;DHT22;2943;48.012;10.968;2022-09-09T11:25:16;18.30;99.90
5834;DHT22;2943;48.012;10.968;2022-09-09T11:27:55;18.30;99.90
5834;DHT22;2943;48.012;10.968;2022-09-09T11:30:32;18.20;99.90
5834;DHT22;2943;48.012;10.968;2022-09-09T11:33:15;18.20;99.90
5834;DHT22;2943;48.012;10.968;2022-09-09T11:35:52;18.30;99.90
5834;DHT22;2943;48.012;10.968;2022-09-09T11:38:25;18.20;99.90
5834;DHT22;2943;48.012;10.968;2022-09-09T11:41:01;18.20;99.90
5834;DHT22;2943;48.012;10.968;2022-09-09T11:43:32;18.20;99.90
5834;DHT22;2943;48.012;10.968;2022-09-09T11:46:02;18.20;99.90
5834;DHT22;2943;48.012;10.968;2022-09-09T11:48:32;18.20;99.90
5834;DHT22;2943;48.012;10.968;2022-09-09T11:51:03;18.20;99.90
5834;DHT22;2943;48.012;10.968;2022-09-09T11:53:31;18.30;99.90
5834;DHT22;2943;48.012;10.968;2022-09-09T11:56:07;18.40;99.90
5834;DHT22;2943;48.012;10.968;2022-09-09T11:58:38;18.40;99.90
5834;DHT22;2943;48.012;10.968;2022-09-09T12:01:37;18.40;99.90
5834;DHT22;2943;48.012;10.968;2022-09-09T12:04:28;18.50;99.90
5834;DHT22;2943;48.012;10.968;2022-09-09T12:06:59;18.40;99.90
5834;DHT22;2943;48.012;10.968;2022-09-09T12:09:33;18.30;99.90
5834;DHT22;2943;48.012;10.968;2022-09-09T12:12:25;18.30;99.90
5834;DHT22;2943;48.012;10.968;2022-09-09T12:15:01;18.20;99.90
5834;DHT22;2943;48.012;10.968;2022-09-09T12:17:31;18.20;99.90
5834;DHT22;2943;48.012;10.968;2022-09-09T12:20:08;18.20;99.90
5834;DHT22;2943;48.012;10.968;2022-09-09T12:22:49;18.30;99.90
5834;DHT22;2943;48.012;10.968;2022-09-09T12:25:26;18.30;99.90
5834;DHT22;2943;48.012;10.968;2022-09-09T12:28:03;18.30;99.90
5834;DHT22;2943;48.012;10.968;2022-09-09T12:30:37;18.40;99.90
5834;DHT22;2943;48.012;10.968;2022-09-09T12:33:11;18.40;99.90
5834;DHT22;2943;48.012;10.968;2022-09-09T12:35:40;18.50;99.90
5834;DHT22;2943;48.012;10.968;2022-09-09T12:38:14;18.60;99.90
5834;DHT22;2943;48.012;10.968;2022-09-09T12:40:41;18.70;99.90
5834;DHT22;2943;48.012;10.968;2022-09-09T12:43:17;18.70;99.90
5834;DHT22;2943;48.012;10.968;2022-09-09T12:45:45;18.80;99.90
5834;DHT22;2943;48.012;10.968;2022-09-09T12:48:16;18.90;99.90
5834;DHT22;2943;48.012;10.968;2022-09-09T12:50:45;18.90;99.90
5834;DHT22;2943;48.012;10.968;2022-09-09T12:53:20;19.00;99.90
5834;DHT22;2943;48.012;10.968;2022-09-09T12:55:51;19.10;99.90
5834;DHT22;2943;48.012;10.968;2022-09-09T12:58:19;19.30;99.90
5834;DHT22;2943;48.012;10.968;2022-09-09T13:00:50;19.40;99.90
5834;DHT22;2943;48.012;10.968;2022-09-09T13:03:20;19.60;99.90
5834;DHT22;2943;48.012;10.968;2022-09-09T13:05:47;19.80;99.90
5834;DHT22;2943;48.012;10.968;2022-09-09T13:08:16;19.90;99.90
5834;DHT22;2943;48.012;10.968;2022-09-09T13:10:47;19.90;99.90
5834;DHT22;2943;48.012;10.968;2022-09-09T13:13:16;20.00;99.90
5834;DHT22;2943;48.012;10.968;2022-09-09T13:15:50;20.00;99.90
5834;DHT22;2943;48.012;10.968;2022-09-09T13:18:21;20.10;99.90
5834;DHT22;2943;48.012;10.968;2022-09-09T13:20:49;20.10;99.90
5834;DHT22;2943;48.012;10.968;2022-09-09T13:23:18;20.20;99.90
5834;DHT22;2943;48.012;10.968;2022-09-09T13:25:53;20.40;99.90
5834;DHT22;2943;48.012;10.968;2022-09-09T13:28:22;20.50;99.90
5834;DHT22;2943;48.012;10.968;2022-09-09T13:30:57;20.60;99.90
5834;DHT22;2943;48.012;10.968;2022-09-09T13:33:32;20.60;99.90
5834;DHT22;2943;48.012;10.968;2022-09-09T13:36:01;20.60;99.90
5834;DHT22;2943;48.012;10.968;2022-09-09T13:38:31;20.60;99.90
5834;DHT22;2943;48.012;10.968;2022-09-09T13:40:59;20.50;99.90
5834;DHT22;2943;48.012;10.968;2022-09-09T13:43:32;20.50;99.90
5834;DHT22;2943;48.012;10.968;2022-09-09T13:46:01;20.50;99.90
5834;DHT22;2943;48.012;10.968;2022-09-09T13:48:30;20.60;99.90
5834;DHT22;2943;48.012;10.968;2022-09-09T13:50:59;20.60;99.90
5834;DHT22;2943;48.012;10.968;2022-09-09T13:53:27;20.60;99.90
5834;DHT22;2943;48.012;10.968;2022-09-09T13:55:54;20.50;99.90
5834;DHT22;2943;48.012;10.968;2022-09-09T13:58:22;20.60;99.90
5834;DHT22;2943;48.012;10.968;2022-09-09T14:00:51;20.70;99.90
5834;DHT22;2943;48.012;10.968;2022-09-09T14:03:18;20.70;99.90
5834;DHT22;2943;48.012;10.968;2022-09-09T14:05:46;20.70;99.90
5834;DHT22;2943;48.012;10.968;2022-09-09T14:08:21;20.70;99.90
5834;DHT22;2943;48.012;10.968;2022-09-09T14:10:48;20.80;99.90
5834;DHT22;2943;48.012;10.968;2022-09-09T14:13:15;21.00;99.90
5834;DHT22;2943;48.012;10.968;2022-09-09T14:15:42;21.20;99.90
5834;DHT22;2943;48.012;10.968;2022-09-09T14:18:11;21.30;99.90
5834;DHT22;2943;48.012;10.968;2022-09-09T14:20:39;21.50;99.90
5834;DHT22;2943;48.012;10.968;2022-09-09T14:23:10;21.60;99.90
5834;DHT22;2943;48.012;10.968;2022-09-09T14:25:40;21.60;99.90
5834;DHT22;2943;48.012;10.968;2022-09-09T14:28:08;21.60;99.90
5834;DHT22;2943;48.012;10.968;2022-09-09T14:30:37;21.60;99.90
5834;DHT22;2943;48.012;10.968;2022-09-09T14:33:04;21.70;99.90
5834;DHT22;2943;48.012;10.968;2022-09-09T14:35:31;21.80;99.90
5834;DHT22;2943;48.012;10.968;2022-09-09T14:37:58;21.80;99.90
5834;DHT22;2943;48.012;10.968;2022-09-09T14:40:26;21.90;99.90
5834;DHT22;2943;48.012;10.968;2022-09-09T14:42:53;21.90;99.90
5834;DHT22;2943;48.012;10.968;2022-09-09T14:45:21;21.90;99.90
5834;DHT22;2943;48.012;10.968;2022-09-09T14:47:50;21.90;99.90
5834;DHT22;2943;48.012;10.968;2022-09-09T14:50:17;21.90;99.90
5834;DHT22;2943;48.012;10.968;2022-09-09T14:52:44;22.00;99.90
5834;DHT22;2943;48.012;10.968;2022-09-09T14:55:11;22.10;99.90
5834;DHT22;2943;48.012;10.968;2022-09-09T14:57:39;22.20;99.90
5834;DHT22;2943;48.012;10.968;2022-09-09T15:00:07;22.20;99.90
5834;DHT22;2943;48.012;10.968;2022-09-09T15:02:34;22.10;99.90
5834;DHT22;2943;48.012;10.968;2022-09-09T15:05:01;21.90;99.90
5834;DHT22;2943;48.012;10.968;2022-09-09T15:07:28;21.70;99.90
5834;DHT22;2943;48.012;10.968;2022-09-09T15:09:57;21.50;99.90
5834;DHT22;2943;48.012;10.968;2022-09-09T15:12:24;21.30;99.90
5834;DHT22;2943;48.012;10.968;2022-09-09T15:14:52;21.10;99.90
5834;DHT22;2943;48.012;10.968;2022-09-09T15:17:20;21.00;99.90
5834;DHT22;2943;48.012;10.968;2022-09-09T15:19:47;20.90;99.90
5834;DHT22;2943;48.012;10.968;2022-09-09T15:22:15;20.90;99.90
5834;DHT22;2943;48.012;10.968;2022-09-09T15:24:42;20.90;99.90
5834;DHT22;2943;48.012;10.968;2022-09-09T15:27:09;21.00;99.90
5834;DHT22;2943;48.012;10.968;2022-09-09T15:29:35;21.20;99.90
5834;DHT22;2943;48.012;10.968;2022-09-09T15:32:05;21.30;99.90
5834;DHT22;2943;48.012;10.968;2022-09-09T15:34:32;21.40;99.90
5834;DHT22;2943;48.012;10.968;2022-09-09T15:36:59;21.50;99.90
5834;DHT22;2943;48.012;10.968;2022-09-09T15:39:26;21.60;99.90
5834;DHT22;2943;48.012;10.968;2022-09-09T15:41:53;21.60;99.90
5834;DHT22;2943;48.012;10.968;2022-09-09T15:44:19;21.60;99.90
5834;DHT22;2943;48.012;10.968;2022-09-09T15:46:49;21.70;99.90
5834;DHT22;2943;48.012;10.968;2022-09-09T15:49:19;21.80;99.90
5834;DHT22;2943;48.012;10.968;2022-09-09T15:51:51;21.90;99.90
5834;DHT22;2943;48.012;10.968;2022-09-09T15:54:19;21.90;99.90
5834;DHT22;2943;48.012;10.968;2022-09-09T15:56:51;21.90;99.90
5834;DHT22;2943;48.012;10.968;2022-09-09T15:59:20;21.90;99.90
5834;DHT22;2943;48.012;10.968;2022-09-09T16:01:47;21.90;99.90
5834;DHT22;2943;48.012;10.968;2022-09-09T16:04:18;21.90;99.90
5834;DHT22;2943;48.012;10.968;2022-09-09T16:06:49;22.00;99.90
5834;DHT22;2943;48.012;10.968;2022-09-09T16:09:17;22.00;99.90